Time;durP1;ratioP1;P1;durP2;ratioP2;P2;SDS_P1;SDS_P2;PMS_P1;PMS_P2;Temp;Humidity;BMP_temperature;BMP_pressure;BME280_temperature;BME280_humidity;BME280_pressure;Samples;Min_cycle;Max_cycle;Signal;HPM_P1;HPM_P2
2023/10/08 00:00:49;;;;;;;;;42.67;34.00;;;;;18.59;59.35;101992.78;5017365;28;45573;-77
2023/10/08 00:03:20;;;;;;;;;33.33;29.00;;;;;19.40;59.17;102155.59;5018011;28;45513;-77
2023/10/08 00:05:46;;;;;;;;;35.33;26.33;;;;;19.50;59.69;102170.50;5018457;28;45419;-73
2023/10/08 00:08:14;;;;;;;;;32.67;30.33;;;;;19.30;59.41;102149.50;5018324;28;45482;-74
2023/10/08 00:10:44;;;;;;;;;36.00;30.33;;;;;19.51;59.47;102174.94;5017233;28;45451;-74
2023/10/08 00:13:17;;;;;;;;;34.67;32.00;;;;;19.50;59.61;102183.78;5015858;28;46639;-73
2023/10/08 00:15:52;;;;;;;;;40.33;33.67;;;;;18.81;59.29;102058.00;5011053;28;45497;-73
2023/10/08 00:18:22;;;;;;;;;37.67;31.67;;;;;19.52;59.69;102178.47;5015613;28;45501;-74
2023/10/08 00:20:57;;;;;;;;;42.67;35.00;;;;;18.99;59.25;102085.25;5021495;28;45464;-74
2023/10/08 00:23:26;;;;;;;;;34.67;32.33;;;;;19.42;59.96;102183.91;5021385;28;45542;-74
2023/10/08 00:25:54;;;;;;;;;45.00;36.50;;;;;19.33;60.40;102184.00;5019743;28;45366;-75
2023/10/08 00:28:21;;;;;;;;;44.00;36.25;;;;;19.03;60.63;102175.47;5019273;28;45490;-73
2023/10/08 00:30:47;;;;;;;;;43.00;35.50;;;;;19.15;60.80;102186.84;5017915;28;45438;-74
2023/10/08 00:33:22;;;;;;;;;45.00;34.33;;;;;18.77;60.73;102121.75;5015298;28;47023;-74
2023/10/08 00:35:47;;;;;;;;;37.50;33.75;;;;;18.92;61.20;102147.28;5020120;28;45482;-75
2023/10/08 00:38:20;;;;;;;;;40.00;32.67;;;;;18.77;61.08;102121.75;5016995;28;45532;-73
2023/10/08 00:40:46;;;;;;;;;48.50;35.50;;;;;18.95;61.38;102171.13;5033462;28;45588;-73
2023/10/08 00:43:34;;;;;;;;;36.00;31.67;;;;;18.99;60.67;102187.03;5016875;28;45789;-73
2023/10/08 00:46:01;;;;;;;;;37.75;33.25;;;;;18.69;61.16;102135.06;5016718;28;45545;-73
2023/10/08 00:48:29;;;;;;;;;36.67;30.33;;;;;19.07;60.88;102190.47;5017475;28;45486;-73
2023/10/08 00:51:25;;;;;;;;;34.33;31.67;;;;;18.49;60.82;102095.47;5018571;28;45296;-73
2023/10/08 00:53:45;;;;;;;;;46.33;32.00;;;;;19.07;60.81;102185.16;5017693;28;45673;-73
2023/10/08 00:56:18;;;;;;;;;38.00;30.67;;;;;18.88;61.14;102149.06;5017086;28;45434;-73
2023/10/08 00:58:49;;;;;;;;;32.00;29.33;;;;;18.88;60.84;102157.03;5016628;28;45765;-73
2023/10/08 01:01:16;;;;;;;;;29.33;25.00;;;;;19.05;60.73;102183.41;5016834;28;45477;-74
2023/10/08 01:03:44;;;;;;;;;33.33;29.00;;;;;18.80;61.31;102138.53;5015265;28;46247;-72
2023/10/08 01:06:12;;;;;;;;;41.00;30.33;;;;;18.86;60.81;102158.81;5029962;28;45448;-73
2023/10/08 01:08:45;;;;;;;;;31.67;28.33;;;;;18.65;61.05;102123.63;5016436;28;45398;-73
2023/10/08 01:12:06;;;;;;;;;34.33;30.00;;;;;18.14;61.48;102034.78;5016215;28;45463;-73
2023/10/08 01:14:12;;;;;;;;;28.33;27.33;;;;;18.58;61.05;102102.44;5010778;28;45588;-74
2023/10/08 01:16:41;;;;;;;;;32.00;28.00;;;;;18.41;60.55;102065.47;5016771;28;45437;-73
2023/10/08 01:19:15;;;;;;;;;33.67;27.33;;;;;18.79;60.85;102130.56;5015986;28;45518;-73
2023/10/08 01:21:41;;;;;;;;;30.67;29.33;;;;;18.62;61.24;102126.28;5003143;28;45432;-74
2023/10/08 01:24:07;;;;;;;;;34.00;29.33;;;;;18.87;61.71;102171.22;5015433;28;46313;-74
2023/10/08 01:26:39;;;;;;;;;35.33;33.67;;;;;18.94;61.15;102170.25;5016162;28;46596;-72
2023/10/08 01:29:09;;;;;;;;;41.75;34.00;;;;;18.86;61.46;102156.16;5016215;28;45426;-74
2023/10/08 01:31:36;;;;;;;;;41.00;34.50;;;;;18.76;61.96;102165.09;5017154;28;45318;-73
2023/10/08 01:34:04;;;;;;;;;34.33;32.33;;;;;18.79;61.82;102160.69;5014791;28;47984;-73
2023/10/08 01:36:31;;;;;;;;;43.67;35.33;;;;;18.81;61.69;102161.53;5004902;28;45334;-74
2023/10/08 01:38:57;;;;;;;;;34.67;30.00;;;;;18.60;61.84;102138.72;5004454;28;45758;-73
2023/10/08 01:41:30;;;;;;;;;43.50;33.50;;;;;18.12;62.40;102071.91;5012056;28;45469;-74
2023/10/08 01:44:00;;;;;;;;;45.00;36.50;;;;;18.46;62.65;102123.78;5005086;28;45555;-74
2023/10/08 01:46:25;;;;;;;;;50.25;38.25;;;;;18.12;63.06;102085.16;5010453;28;45512;-73
2023/10/08 01:48:55;;;;;;;;;47.50;37.50;;;;;17.97;63.11;102082.63;5016703;28;45509;-73
2023/10/08 01:51:36;;;;;;;;;50.75;38.50;;;;;18.41;63.35;102150.34;5017694;28;45423;-73
2023/10/08 01:54:03;;;;;;;;;44.00;36.75;;;;;17.59;63.28;102036.03;4996359;28;45445;-73
2023/10/08 01:56:29;;;;;;;;;48.75;40.50;;;;;17.54;63.40;102020.19;5006965;28;45510;-73
2023/10/08 01:58:55;;;;;;;;;44.50;35.75;;;;;17.70;63.82;102071.31;5015871;28;45507;-73
2023/10/08 02:01:21;;;;;;;;;46.75;37.50;;;;;18.19;63.63;102134.59;5016210;28;45546;-73
2023/10/08 02:03:47;;;;;;;;;46.25;39.00;;;;;18.09;63.75;102119.66;5015765;28;46096;-73
2023/10/08 02:06:12;;;;;;;;;43.25;34.50;;;;;18.31;63.59;102136.28;5016193;28;45413;-73
2023/10/08 02:08:38;;;;;;;;;47.50;36.25;;;;;17.70;63.56;102020.06;5016544;28;45401;-73
2023/10/08 02:11:04;;;;;;;;;44.75;35.50;;;;;18.07;63.49;102072.84;5017886;28;45506;-73
2023/10/08 02:13:30;;;;;;;;;35.75;33.00;;;;;18.32;63.77;102130.09;5018209;28;46688;-73
2023/10/08 02:15:56;;;;;;;;;48.50;40.00;;;;;18.22;64.24;102128.38;5017909;28;45569;-74
2023/10/08 02:18:25;;;;;;;;;47.25;39.25;;;;;18.22;64.23;102131.03;5015205;28;45606;-73
2023/10/08 02:20:51;;;;;;;;;45.00;36.50;;;;;18.18;64.19;102124.91;5014573;28;45633;-74
2023/10/08 02:23:18;;;;;;;;;45.75;38.25;;;;;17.41;64.20;101991.13;5015997;28;45641;-72
2023/10/08 02:25:44;;;;;;;;;44.25;34.00;;;;;18.13;64.54;102129.34;5018341;28;45438;-73
2023/10/08 02:28:12;;;;;;;;;37.75;34.25;;;;;17.65;64.18;102028.03;5019297;28;45336;-74
2023/10/08 02:30:39;;;;;;;;;41.50;35.50;;;;;17.85;64.22;102054.44;5019859;28;45265;-73
2023/10/08 02:33:13;;;;;;;;;44.50;37.00;;;;;17.43;64.08;101986.69;5017739;28;45389;-73
2023/10/08 02:35:42;;;;;;;;;38.00;33.50;;;;;18.15;64.29;102114.31;5018942;28;45401;-73
2023/10/08 02:38:16;;;;;;;;;43.00;32.50;;;;;17.74;63.80;102035.94;5019220;28;45477;-73
2023/10/08 02:40:47;;;;;;;;;42.00;34.75;;;;;18.34;63.66;102116.81;5020420;28;45457;-73
2023/10/08 02:43:17;;;;;;;;;41.25;34.25;;;;;18.31;63.55;102120.38;5019248;28;46243;-73
2023/10/08 02:45:47;;;;;;;;;40.75;35.00;;;;;18.00;63.34;102074.66;5017563;28;45454;-74
2023/10/08 02:48:13;;;;;;;;;31.00;29.00;;;;;17.91;63.03;102048.22;5019104;28;45630;-73
2023/10/08 02:50:47;;;;;;;;;32.33;28.33;;;;;18.03;62.63;102056.06;5019010;28;45489;-73
2023/10/08 02:53:25;;;;;;;;;32.00;30.33;;;;;17.90;62.43;102023.47;5019248;28;46458;-74
2023/10/08 02:55:52;;;;;;;;;34.67;29.33;;;;;17.98;62.56;102049.91;5019220;28;45366;-73
2023/10/08 02:58:20;;;;;;;;;31.00;30.33;;;;;18.17;62.58;102087.78;5019853;28;45421;-74
2023/10/08 03:00:48;;;;;;;;;30.50;20.50;;;;;17.43;62.37;101968.16;5020392;28;45449;-74
2023/10/08 03:03:18;;;;;;;;;29.67;26.00;;;;;18.24;62.45;102121.31;5019184;28;46177;-72
2023/10/08 03:05:51;;;;;;;;;31.33;30.00;;;;;18.10;62.99;102089.59;5018680;28;45494;-72
2023/10/08 03:08:21;;;;;;;;;35.00;29.00;;;;;17.86;62.75;102052.66;5018824;28;45527;-73
2023/10/08 03:10:48;;;;;;;;;25.33;23.00;;;;;17.58;62.69;102021.94;5019924;28;45435;-74
2023/10/08 03:13:16;;;;;;;;;26.33;23.67;;;;;18.13;62.70;102117.88;5018698;28;45397;-72
2023/10/08 03:18:35;;;;;;;;;27.00;21.00;;;;;18.08;63.08;102138.22;5018669;28;45474;-74
2023/10/08 03:21:13;;;;;;;;;33.33;29.00;;;;;17.31;63.16;101999.13;5018818;28;45596;-72
2023/10/08 03:23:45;;;;;;;;;34.67;31.33;;;;;17.41;63.77;102022.91;5018556;28;45371;-73
2023/10/08 03:26:11;;;;;;;;;38.25;28.00;;;;;17.72;64.17;102089.81;5018516;28;45579;-73
2023/10/08 03:28:41;;;;;;;;;36.50;34.00;;;;;17.27;63.97;102021.19;5019356;28;45275;-73
2023/10/08 03:31:14;;;;;;;;;23.25;17.25;;;;;17.68;64.28;102096.94;5018096;28;45377;-73
2023/10/08 03:33:40;;;;;;;;;42.25;34.75;;;;;17.76;64.53;102136.63;5017653;28;46799;-73
2023/10/08 03:36:19;;;;;;;;;39.75;33.50;;;;;17.48;64.52;102091.72;5023579;28;45625;-74
2023/10/08 03:38:50;;;;;;;;;41.00;36.25;;;;;17.65;64.83;102136.66;5030841;28;45418;-72
2023/10/08 03:41:29;;;;;;;;;36.25;34.25;;;;;17.62;65.02;102127.88;5026458;28;45371;-74
2023/10/08 03:44:06;;;;;;;;;41.00;34.00;;;;;16.66;65.19;101995.88;5022265;28;45529;-72
2023/10/08 03:46:39;;;;;;;;;34.00;28.50;;;;;17.21;65.29;102108.63;5019356;28;45575;-75
2023/10/08 03:49:11;;;;;;;;;41.00;34.75;;;;;17.25;65.40;102109.47;5019721;28;45395;-73
2023/10/08 03:51:40;;;;;;;;;43.25;34.75;;;;;16.81;65.48;102037.28;5034836;28;45345;-73
2023/10/08 03:56:36;;;;;;;;;39.50;34.50;;;;;17.31;66.19;102139.47;5018968;28;45430;-74
2023/10/08 03:59:48;;;;;;;;;39.50;33.50;;;;;16.94;66.34;102084.00;5018033;28;45477;-76
2023/10/08 04:01:59;;;;;;;;;10.00;8.25;;;;;16.62;65.63;102027.63;5012150;28;45330;-75
2023/10/08 04:04:43;;;;;;;;;39.25;31.50;;;;;17.19;65.48;102118.34;5018868;28;46025;-75
2023/10/08 04:10:05;;;;;;;;;37.50;33.75;;;;;17.18;66.21;102143.06;5018248;28;45283;-75
2023/10/08 04:12:34;;;;;;;;;31.75;29.25;;;;;17.10;66.09;102118.34;5018620;28;45450;-74
2023/10/08 04:15:01;;;;;;;;;41.75;33.50;;;;;16.46;66.28;102011.75;5017825;28;45611;-77
2023/10/08 04:17:28;;;;;;;;;31.00;28.50;;;;;16.99;66.40;102129.00;5018346;28;45518;-76
2023/10/08 04:19:54;;;;;;;;;32.50;31.50;;;;;17.02;66.71;102122.81;5019785;28;45375;-75
2023/10/08 04:22:20;;;;;;;;;33.75;30.00;;;;;16.99;67.01;102144.88;5020230;28;45359;-73
2023/10/08 04:24:45;;;;;;;;;38.25;33.00;;;;;16.69;66.99;102093.72;5019280;28;46372;-74
2023/10/08 04:27:11;;;;;;;;;34.00;30.50;;;;;16.47;66.70;102071.72;5019152;28;45489;-74
2023/10/08 04:29:37;;;;;;;;;30.25;29.75;;;;;16.94;67.00;102149.28;5017816;28;45512;-74
2023/10/08 04:32:22;;;;;;;;;27.00;21.50;;;;;16.66;66.71;102116.69;5026557;28;45966;-73
2023/10/08 04:34:49;;;;;;;;;36.00;28.75;;;;;16.50;66.97;102071.72;5015569;28;46538;-74
2023/10/08 04:37:20;;;;;;;;;31.75;30.00;;;;;16.25;66.88;102039.16;5017384;28;45390;-74
2023/10/08 04:39:47;;;;;;;;;28.00;26.75;;;;;16.91;66.83;102142.22;5017510;28;45438;-73
2023/10/08 04:42:14;;;;;;;;;28.25;26.50;;;;;16.48;67.02;102077.88;5018574;28;45322;-73
2023/10/08 04:44:40;;;;;;;;;29.00;25.50;;;;;16.73;67.03;102111.38;5017068;28;45490;-74
2023/10/08 04:47:08;;;;;;;;;28.75;26.50;;;;;16.92;67.09;102157.22;5017342;28;45427;-75
2023/10/08 04:49:34;;;;;;;;;26.33;25.33;;;;;16.23;67.15;102030.31;5018106;28;45626;-75
2023/10/08 04:52:25;;;;;;;;;31.00;28.75;;;;;16.37;67.38;102047.91;5012136;28;45621;-73
2023/10/08 04:54:54;;;;;;;;;36.25;28.00;;;;;16.80;67.34;102138.75;5018535;28;46539;-74
2023/10/08 04:57:25;;;;;;;;;30.50;26.75;;;;;16.36;67.54;102062.03;5022736;28;45542;-73
2023/10/08 04:59:52;;;;;;;;;31.25;26.00;;;;;16.35;67.52;102058.53;5027274;28;45424;-73
2023/10/08 05:02:34;;;;;;;;;30.00;29.25;;;;;16.13;67.87;102032.97;5021005;28;45207;-74
2023/10/08 05:08:00;;;;;;;;;32.75;27.50;;;;;16.16;68.02;102032.94;5017482;28;45186;-73
2023/10/08 05:28:35;;;;;;;;;31.25;25.50;;;;;16.72;67.47;102145.75;5016701;28;45422;-73
2023/10/08 05:36:50;;;;;;;;;31.50;27.50;;;;;16.81;67.43;102161.66;5014514;28;45564;-74
2023/10/08 05:41:51;;;;;;;;;32.00;25.75;;;;;16.78;67.87;102148.41;5019882;28;45260;-74
2023/10/08 05:44:24;;;;;;;;;32.50;25.25;;;;;16.31;67.70;102059.41;5019107;28;45463;-73
2023/10/08 05:49:38;;;;;;;;;32.25;31.00;;;;;16.69;67.75;102144.00;5018429;28;45494;-73
2023/10/08 06:00:46;;;;;;;;;34.25;27.75;;;;;16.60;68.03;102138.69;5017961;28;45363;-73
2023/10/08 06:03:00;;;;;;;;;33.25;28.00;;;;;16.01;67.98;102060.28;5019529;28;45428;-74
2023/10/08 06:05:32;;;;;;;;;31.25;27.75;;;;;15.92;68.21;102065.53;5018116;28;45257;-73
2023/10/08 06:08:11;;;;;;;;;29.75;28.00;;;;;15.62;68.37;102023.22;5020189;28;45540;-72
2023/10/08 06:13:16;;;;;;;;;34.25;28.50;;;;;16.46;68.29;102153.69;5019706;28;45455;-72
2023/10/08 06:15:48;;;;;;;;;30.00;25.25;;;;;16.12;68.50;102071.75;5019661;28;45645;-73
2023/10/08 06:18:28;;;;;;;;;38.25;29.25;;;;;16.06;68.35;102077.91;5020940;28;46204;-75
2023/10/08 06:20:55;;;;;;;;;35.75;27.75;;;;;16.42;68.02;102136.97;5019465;28;45662;-74
2023/10/08 06:23:22;;;;;;;;;32.50;26.50;;;;;15.80;68.10;102024.13;5021233;28;45436;-74
2023/10/08 06:26:25;;;;;;;;;30.25;30.25;;;;;16.58;68.24;102161.63;5023091;28;45450;-73
2023/10/08 06:28:44;;;;;;;;;34.75;30.25;;;;;16.59;67.73;102163.41;5009502;28;45645;-75
2023/10/08 06:31:16;;;;;;;;;35.75;30.50;;;;;16.28;68.11;102125.50;5015509;28;45491;-73
2023/10/08 06:33:43;;;;;;;;;32.50;27.75;;;;;16.45;68.12;102159.88;5019660;28;45809;-76
2023/10/08 06:36:13;;;;;;;;;32.50;27.00;;;;;16.49;68.17;102166.91;5020457;28;45429;-74
2023/10/08 06:38:59;;;;;;;;;30.00;26.75;;;;;16.31;67.80;102118.44;5019885;28;46366;-73
2023/10/08 06:41:33;;;;;;;;;34.25;29.25;;;;;16.61;67.78;102179.25;5019337;28;45261;-74
2023/10/08 06:44:14;;;;;;;;;32.75;27.75;;;;;16.37;67.70;102128.13;5020614;28;45458;-72
2023/10/08 06:46:40;;;;;;;;;37.25;29.50;;;;;16.46;68.04;102165.16;5019484;28;45918;-71
2023/10/08 06:49:11;;;;;;;;;33.50;30.00;;;;;16.61;68.02;102173.97;5018333;28;46149;-72
2023/10/08 06:51:38;;;;;;;;;32.25;29.25;;;;;16.23;67.79;102112.28;5019245;28;45423;-71
2023/10/08 06:54:04;;;;;;;;;27.00;21.75;;;;;15.67;67.66;101995.03;5024544;28;45829;-73
2023/10/08 06:56:31;;;;;;;;;32.50;31.25;;;;;16.39;67.32;102118.44;5033501;28;44757;-70
2023/10/08 06:58:59;;;;;;;;;32.75;27.50;;;;;16.44;67.61;102126.38;5023497;28;45512;-72
2023/10/08 07:01:25;;;;;;;;;34.25;27.00;;;;;16.71;67.18;102159.88;5019697;28;45458;-77
2023/10/08 07:03:51;;;;;;;;;31.25;26.75;;;;;16.36;66.97;102086.72;5019191;28;45692;-75
2023/10/08 07:06:26;;;;;;;;;29.75;28.25;;;;;17.02;66.14;102158.09;5022293;28;45395;-72
2023/10/08 07:08:55;;;;;;;;;34.00;31.00;;;;;17.07;66.05;102169.56;5020039;28;47032;-73
2023/10/08 07:11:22;;;;;;;;;27.50;25.75;;;;;16.85;65.98;102121.06;5020113;28;45351;-73
2023/10/08 07:13:48;;;;;;;;;33.00;29.75;;;;;17.10;66.02;102166.00;5019079;28;45787;-73
2023/10/08 07:16:17;;;;;;;;;32.00;29.50;;;;;17.02;65.97;102151.94;5018475;28;45470;-74
2023/10/08 07:18:55;;;;;;;;;31.75;29.00;;;;;17.31;65.70;102194.22;5019652;28;45217;-74
2023/10/08 07:21:38;;;;;;;;;24.00;24.00;;;;;17.18;65.16;102161.59;5033394;28;45572;-72
2023/10/08 07:24:09;;;;;;;;;30.00;28.25;;;;;17.36;65.46;102192.41;5033229;28;45555;-73
2023/10/08 07:26:39;;;;;;;;;34.75;31.25;;;;;17.34;65.10;102187.13;5018126;28;45574;-74
2023/10/08 07:29:09;;;;;;;;;35.50;31.50;;;;;17.13;65.05;102135.13;5019571;28;46221;-74
2023/10/08 07:31:43;;;;;;;;;33.75;28.50;;;;;17.56;64.39;102187.94;5014651;28;45285;-73
2023/10/08 07:34:18;;;;;;;;;37.00;30.75;;;;;17.43;64.66;102148.25;5016764;28;45471;-72
2023/10/08 07:36:49;;;;;;;;;31.75;27.75;;;;;17.58;64.15;102162.34;5019006;28;45376;-73
2023/10/08 07:39:25;;;;;;;;;32.33;29.67;;;;;17.48;63.74;102133.22;5019317;28;46160;-75
2023/10/08 07:41:53;;;;;;;;;30.75;30.50;;;;;17.90;63.67;102197.53;5014496;28;45518;-74
2023/10/08 07:45:17;;;;;;;;;34.50;29.25;;;;;17.50;63.49;102107.63;5018727;28;45537;-74
2023/10/08 07:47:43;;;;;;;;;33.25;30.25;;;;;18.07;63.26;102179.75;5012064;28;45438;-74
2023/10/08 07:50:12;;;;;;;;;36.75;32.50;;;;;18.16;62.91;102181.47;5018286;28;46044;-75
2023/10/08 07:52:38;;;;;;;;;37.00;30.33;;;;;18.14;62.89;102168.22;5009419;28;45264;-73
2023/10/08 07:55:04;;;;;;;;;39.75;31.00;;;;;17.97;62.57;102125.06;5017893;28;45347;-73
2023/10/08 07:57:30;;;;;;;;;39.33;34.33;;;;;18.22;62.32;102152.25;5017837;28;45327;-73
2023/10/08 08:00:18;;;;;;;;;33.33;28.33;;;;;18.28;62.12;102156.66;5017329;28;45569;-75
2023/10/08 08:02:44;;;;;;;;;44.50;34.25;;;;;18.56;61.59;102187.38;5017662;28;45401;-75
2023/10/08 08:05:15;;;;;;;;;35.50;30.50;;;;;18.64;61.22;102190.84;5018357;28;45497;-75
2023/10/08 08:07:41;;;;;;;;;33.33;26.00;;;;;18.75;60.95;102188.09;5017534;28;45481;-76
2023/10/08 08:10:10;;;;;;;;;24.75;20.25;;;;;18.53;60.79;102139.66;5017291;28;46187;-74
2023/10/08 08:12:37;;;;;;;;;38.00;32.50;;;;;18.11;60.30;102054.25;5017333;28;45479;-76
2023/10/08 08:15:14;;;;;;;;;28.00;27.00;;;;;18.80;60.35;102159.78;5017553;28;45480;-74
2023/10/08 08:17:44;;;;;;;;;32.00;29.00;;;;;18.93;60.21;102165.81;5018337;28;45422;-75
2023/10/08 08:20:19;;;;;;;;;38.33;31.67;;;;;19.10;59.68;102199.31;5018328;28;45437;-74
2023/10/08 08:22:54;;;;;;;;;36.67;29.00;;;;;19.14;58.86;102175.34;5017687;28;45422;-75
2023/10/08 08:25:42;;;;;;;;;40.00;33.33;;;;;19.12;58.74;102171.81;5018850;28;45489;-76
2023/10/08 08:28:16;;;;;;;;;31.67;31.33;;;;;19.07;58.19;102115.25;5019131;28;45736;-79
2023/10/08 08:30:46;;;;;;;;;35.67;31.00;;;;;19.41;58.32;102176.84;5019602;28;45437;-76
2023/10/08 08:33:13;;;;;;;;;37.00;31.67;;;;;19.57;58.59;102189.91;5018914;28;45372;-78
2023/10/08 08:35:39;;;;;;;;;16.67;5.67;;;;;19.73;58.19;102198.63;5018326;28;45496;-79
2023/10/08 08:38:06;;;;;;;;;35.00;31.00;;;;;19.87;57.69;102200.19;5018514;28;45177;-79
2023/10/08 08:40:32;;;;;;;;;31.33;26.33;;;;;20.04;57.28;102205.28;5018921;28;46391;-78
2023/10/08 08:43:02;;;;;;;;;30.33;28.67;;;;;20.14;56.77;102198.03;5017483;28;45474;-79
2023/10/08 08:45:31;;;;;;;;;34.33;31.00;;;;;20.25;56.33;102187.25;5018977;28;45334;-76
2023/10/08 08:47:57;;;;;;;;;35.67;29.33;;;;;20.22;55.99;102153.59;5017949;28;45634;-76
2023/10/08 08:50:23;;;;;;;;;37.33;31.00;;;;;19.97;55.79;102104.34;5034746;28;46213;-78
2023/10/08 08:52:49;;;;;;;;;35.00;30.00;;;;;20.51;55.49;102168.22;5021021;28;45375;-80
2023/10/08 08:55:16;;;;;;;;;32.00;25.33;;;;;20.83;55.34;102193.44;5018816;28;45557;-78
2023/10/08 08:57:50;;;;;;;;;33.67;31.67;;;;;20.88;54.96;102196.88;5016937;28;45692;-76
2023/10/08 09:00:18;;;;;;;;;33.00;29.00;;;;;20.81;54.88;102160.63;5013335;28;46663;-73
2023/10/08 09:02:49;;;;;;;;;35.00;29.67;;;;;20.66;55.26;102117.38;5007296;28;45371;-74
2023/10/08 09:05:34;;;;;;;;;32.67;30.67;;;;;20.73;53.78;102102.19;5016870;28;45362;-74
2023/10/08 09:08:06;;;;;;;;;27.67;27.67;;;;;21.29;53.79;102180.13;5018478;28;45463;-74
2023/10/08 09:10:51;;;;;;;;;24.33;23.33;;;;;21.13;53.42;102114.75;5016651;28;45434;-75
2023/10/08 09:13:25;;;;;;;;;33.00;29.67;;;;;21.75;52.33;102194.34;5009313;28;45470;-79
2023/10/08 09:15:51;;;;;;;;;28.67;24.33;;;;;21.85;52.18;102187.88;5014625;28;45550;-75
2023/10/08 09:18:17;;;;;;;;;31.33;29.00;;;;;22.03;52.39;102190.13;5016278;28;45503;-77
2023/10/08 09:20:43;;;;;;;;;29.00;29.00;;;;;21.81;51.57;102138.19;5023118;28;46378;-77
2023/10/08 09:23:12;;;;;;;;;33.33;26.00;;;;;22.20;51.88;102167.53;5028956;28;45283;-73
2023/10/08 09:25:42;;;;;;;;;33.33;32.33;;;;;22.30;51.09;102160.19;5017864;28;45383;-74
2023/10/08 09:28:08;;;;;;;;;34.67;28.33;;;;;21.93;50.80;102076.56;5016645;28;45411;-75
2023/10/08 09:30:39;;;;;;;;;30.33;29.00;;;;;22.25;50.89;102106.06;5016372;28;45720;-73
2023/10/08 09:33:10;;;;;;;;;32.67;27.33;;;;;22.77;49.98;102180.38;5014409;28;45548;-72
2023/10/08 09:35:36;;;;;;;;;33.67;28.33;;;;;22.88;49.63;102171.22;5015789;28;45728;-78
2023/10/08 09:38:09;;;;;;;;;28.67;27.00;;;;;22.46;49.23;102085.97;5001397;28;45544;-72
2023/10/08 09:40:44;;;;;;;;;27.67;24.33;;;;;23.08;49.26;102160.88;5016180;28;46223;-72
2023/10/08 09:43:15;;;;;;;;;29.67;24.67;;;;;23.46;49.05;102183.84;5016248;28;45484;-73
2023/10/08 09:45:52;;;;;;;;;29.67;28.33;;;;;23.52;48.11;102165.88;5015029;28;45478;-73
2023/10/08 09:48:22;;;;;;;;;30.67;26.00;;;;;23.20;47.50;102083.00;5009930;28;45489;-72
2023/10/08 09:50:52;;;;;;;;;31.00;28.00;;;;;23.83;46.62;102150.69;5028932;28;46854;-70
2023/10/08 09:53:27;;;;;;;;;30.33;26.00;;;;;24.04;46.08;102129.53;5013477;28;45458;-72
2023/10/08 09:55:56;;;;;;;;;35.00;24.67;;;;;24.25;46.20;102114.53;5014207;28;45888;-68
2023/10/08 09:58:24;;;;;;;;;30.33;27.67;;;;;24.63;45.35;102148.09;5013700;28;45544;-68
2023/10/08 10:00:55;;;;;;;;;33.00;26.33;;;;;24.95;44.95;102162.16;5014122;28;46250;-70
2023/10/08 10:03:23;;;;;;;;;31.33;27.67;;;;;24.73;44.28;102081.69;5012423;28;45442;-77
2023/10/08 10:05:52;;;;;;;;;30.67;26.33;;;;;25.12;43.85;102094.53;5019247;28;45516;-77
2023/10/08 10:08:24;;;;;;;;;31.67;27.33;;;;;25.43;43.49;102139.00;5015648;28;45461;-73
2023/10/08 10:10:58;;;;;;;;;34.00;25.33;;;;;25.33;43.05;102082.16;5014242;28;46892;-75
2023/10/08 10:13:47;;;;;;;;;28.33;27.00;;;;;25.92;42.65;102123.69;5012763;28;45390;-74
2023/10/08 10:16:21;;;;;;;;;23.00;22.00;;;;;26.31;41.98;102062.06;5014145;28;45549;-72
2023/10/08 10:18:50;;;;;;;;;23.67;23.67;;;;;27.77;39.96;102074.22;5007222;28;45359;-74
2023/10/08 10:21:16;;;;;;;;;28.33;26.33;;;;;30.07;36.16;102146.56;5015014;28;45561;-71
2023/10/08 10:23:43;;;;;;;;;25.00;21.67;;;;;31.20;32.72;102088.31;5013697;28;45468;-72
2023/10/08 10:26:33;;;;;;;;;23.33;22.33;;;;;32.64;31.89;102136.66;5013702;28;45406;-73
2023/10/08 10:29:09;;;;;;;;;26.33;24.00;;;;;33.69;30.13;102140.94;5008709;28;45454;-76
2023/10/08 10:31:35;;;;;;;;;28.33;24.33;;;;;34.11;28.78;102111.56;5025417;28;45738;-77
2023/10/08 10:34:08;;;;;;;;;26.50;23.75;;;;;33.72;28.59;102076.41;5013287;28;45399;-78
2023/10/08 10:36:41;;;;;;;;;24.25;21.75;;;;;34.10;28.46;102036.41;5016862;28;45362;-74
2023/10/08 10:39:15;;;;;;;;;22.00;21.50;;;;;34.39;28.22;102005.09;5016603;28;46891;-77
2023/10/08 10:41:48;;;;;;;;;29.67;28.33;;;;;35.85;26.05;102148.50;5015881;28;45427;-74
2023/10/08 10:44:16;;;;;;;;;23.75;21.50;;;;;35.80;25.89;102131.69;5016327;28;45501;-76
2023/10/08 10:46:51;;;;;;;;;17.50;17.50;;;;;35.83;25.88;102125.09;5018806;28;45566;-76
2023/10/08 10:49:31;;;;;;;;;19.00;19.00;;;;;35.70;26.01;102076.22;5019403;28;45390;-75
2023/10/08 10:51:57;;;;;;;;;17.80;15.20;;;;;36.61;25.09;102128.53;5019636;28;46013;-76
2023/10/08 10:54:24;;;;;;;;;28.25;22.50;;;;;37.40;25.21;102128.81;5034937;28;45521;-77
2023/10/08 10:57:06;;;;;;;;;16.00;15.00;;;;;37.12;23.30;102082.13;5018834;28;45497;-77
2023/10/08 10:59:39;;;;;;;;;17.80;15.00;;;;;37.55;23.36;102091.91;5019565;28;45331;-77
2023/10/08 11:02:08;;;;;;;;;15.60;14.20;;;;;37.75;23.59;102124.72;5017599;28;46448;-73
2023/10/08 11:04:47;;;;;;;;;17.00;13.80;;;;;36.91;23.29;102059.44;5018654;28;45419;-76
2023/10/08 11:07:15;;;;;;;;;16.40;14.20;;;;;37.03;23.53;102085.66;5018347;28;45366;-76
2023/10/08 11:09:44;;;;;;;;;13.60;13.60;;;;;36.90;23.32;102055.84;5018747;28;45371;-74
2023/10/08 11:12:11;;;;;;;;;12.80;10.80;;;;;37.24;22.61;102071.94;5019426;28;46528;-75
2023/10/08 11:14:43;;;;;;;;;12.60;12.00;;;;;37.09;23.02;102048.75;5019080;28;45469;-75
2023/10/08 11:17:24;;;;;;;;;18.80;14.20;;;;;37.06;23.48;102035.38;5019098;28;45477;-76
2023/10/08 11:19:50;;;;;;;;;15.60;13.80;;;;;37.57;23.00;102080.84;5007459;28;45490;-74
2023/10/08 11:22:17;;;;;;;;;19.40;14.60;;;;;36.71;22.64;102039.41;5017769;28;45508;-75
2023/10/08 11:24:47;;;;;;;;;14.60;13.20;;;;;36.35;23.67;102051.66;5017271;28;45369;-73
2023/10/08 11:27:35;;;;;;;;;15.80;14.00;;;;;37.31;23.34;102103.19;5018083;28;45289;-73
2023/10/08 11:30:01;;;;;;;;;13.60;12.40;;;;;37.92;23.06;102118.56;5016671;28;45475;-71
2023/10/08 11:32:27;;;;;;;;;20.00;14.40;;;;;37.52;22.70;102083.97;5017951;28;45501;-69
2023/10/08 11:34:59;;;;;;;;;11.25;11.00;;;;;37.59;22.86;102121.66;5013475;28;45479;-70
2023/10/08 11:37:38;;;;;;;;;14.40;13.00;;;;;36.98;23.44;102084.34;5010710;28;45467;-71
2023/10/08 11:40:09;;;;;;;;;12.40;11.80;;;;;36.86;23.52;102099.94;5018796;28;45918;-71
2023/10/08 11:48:11;;;;;;;;;11.60;11.60;;;;;36.77;23.87;102055.22;4996289;28;45420;-73
2023/10/08 11:50:38;;;;;;;;;12.80;11.40;;;;;37.04;22.87;102083.78;4974544;28;45460;-73
2023/10/08 11:53:08;;;;;;;;;13.80;10.20;;;;;36.24;23.01;102025.31;5008445;28;45563;-74
2023/10/08 11:55:36;;;;;;;;;11.00;9.20;;;;;36.06;23.22;102065.91;5019454;28;45423;-73
2023/10/08 11:58:10;;;;;;;;;9.20;8.40;;;;;35.47;22.78;102032.66;5018789;28;45591;-72
2023/10/08 12:00:46;;;;;;;;;9.80;8.80;;;;;34.91;24.56;102016.41;5018483;28;45292;-73
2023/10/08 12:03:19;;;;;;;;;11.40;9.00;;;;;35.14;24.77;102087.19;5020050;28;46394;-74
2023/10/08 12:05:48;;;;;;;;;11.20;10.00;;;;;35.02;24.16;102067.25;5003999;28;45330;-72
2023/10/08 12:08:18;;;;;;;;;8.80;7.20;;;;;34.42;24.89;102039.34;5017420;28;45521;-72
2023/10/08 12:10:48;;;;;;;;;9.60;8.40;;;;;34.33;25.43;102073.56;5016740;28;45645;-72
2023/10/08 12:13:16;;;;;;;;;8.60;7.60;;;;;34.04;24.83;102061.34;5017595;28;46187;-73
2023/10/08 12:15:44;;;;;;;;;10.60;8.00;;;;;33.54;25.49;102015.28;5016235;28;45495;-73
2023/10/08 12:18:58;;;;;;;;;8.00;7.80;;;;;33.60;25.86;102066.44;5017974;28;45469;-73
2023/10/08 12:21:30;;;;;;;;;11.20;10.40;;;;;33.07;26.52;102058.53;5019128;28;45453;-75
2023/10/08 12:23:59;;;;;;;;;10.00;9.60;;;;;32.61;27.50;102036.53;5019292;28;45502;-75